Time;durP1;ratioP1;P1;durP2;ratioP2;P2;SDS_P1;SDS_P2;PMS_P1;PMS_P2;Temp;Humidity;BMP_temperature;BMP_pressure;BME280_temperature;BME280_humidity;BME280_pressure;Samples;Min_cycle;Max_cycle;Signal;HPM_P1;HPM_P2
2022/07/04 00:01:56;;;;;;;0.90;0.40;;;;;;;23.65;42.64;101967.94;5085144;28;20028;-60
2022/07/04 00:04:21;;;;;;;1.50;0.60;;;;;;;23.45;42.91;101932.19;5086287;28;20036;-60
2022/07/04 00:06:47;;;;;;;1.27;0.60;;;;;;;23.65;43.29;101964.38;5086170;28;20103;-60
2022/07/04 00:09:12;;;;;;;1.50;0.70;;;;;;;23.63;42.93;101964.53;5085835;28;20033;-60
2022/07/04 00:11:37;;;;;;;2.03;0.65;;;;;;;23.62;43.03;101959.28;5068619;28;20092;-60
2022/07/04 00:14:02;;;;;;;3.00;0.73;;;;;;;23.60;42.90;101962.16;5047814;28;20363;-60
2022/07/04 00:16:28;;;;;;;1.40;0.60;;;;;;;23.60;42.85;101953.16;5064639;28;20032;-60
2022/07/04 00:18:53;;;;;;;1.25;0.65;;;;;;;23.43;42.86;101927.94;5064938;28;20025;-60
2022/07/04 00:21:18;;;;;;;1.23;0.70;;;;;;;23.49;42.84;101938.13;5064710;28;20100;-60
2022/07/04 00:23:44;;;;;;;2.13;0.70;;;;;;;23.38;43.05;101914.91;5065536;28;20612;-60
2022/07/04 00:26:09;;;;;;;2.38;0.75;;;;;;;23.41;42.81;101921.84;5065658;28;20037;-60
2022/07/04 00:28:34;;;;;;;1.58;0.90;;;;;;;23.58;42.91;101952.50;5065735;28;20028;-60
2022/07/04 00:30:59;;;;;;;0.73;0.60;;;;;;;23.55;42.71;101936.56;5065885;28;20029;-60
2022/07/04 00:33:25;;;;;;;1.13;0.80;;;;;;;23.53;42.86;101941.31;5047975;28;20025;-60
2022/07/04 00:35:50;;;;;;;1.42;0.80;;;;;;;23.55;42.91;101940.13;5065531;28;20035;-60
2022/07/04 00:38:15;;;;;;;2.60;0.82;;;;;;;23.54;42.82;101941.16;5065771;28;20410;-60
2022/07/04 00:40:40;;;;;;;0.93;0.63;;;;;;;23.36;42.84;101916.06;5065052;28;20024;-60
2022/07/04 00:43:06;;;;;;;1.50;0.60;;;;;;;23.54;42.80;101948.44;5063991;28;20045;-60
2022/07/04 00:45:31;;;;;;;2.67;0.88;;;;;;;23.52;42.87;101943.19;5047753;28;20025;-60
2022/07/04 00:47:57;;;;;;;1.88;0.80;;;;;;;23.52;42.79;101942.34;5065445;28;20233;-60
2022/07/04 00:50:23;;;;;;;1.73;1.00;;;;;;;23.47;42.91;101936.59;5064189;28;20025;-60
2022/07/04 00:52:49;;;;;;;2.80;0.85;;;;;;;23.48;42.63;101947.25;5064308;28;20040;-60
2022/07/04 00:55:15;;;;;;;2.33;0.88;;;;;;;23.48;42.79;101947.25;5063834;28;20025;-60
2022/07/04 00:57:40;;;;;;;2.33;1.02;;;;;;;23.48;42.74;101951.84;5065252;28;20025;-60
2022/07/04 01:00:06;;;;;;;1.65;1.05;;;;;;;23.45;42.80;101945.75;5065448;28;20031;-60
2022/07/04 01:02:31;;;;;;;2.30;0.80;;;;;;;23.45;42.74;101951.19;5065252;28;20051;-60
2022/07/04 01:04:57;;;;;;;2.33;0.80;;;;;;;23.46;42.56;101952.03;5070092;28;20390;-60
2022/07/04 01:07:22;;;;;;;0.95;0.68;;;;;;;23.42;42.79;101943.38;5081469;28;20162;-60
2022/07/04 01:09:47;;;;;;;1.58;0.80;;;;;;;23.42;42.57;101948.81;5064923;28;20036;-60
2022/07/04 01:12:25;;;;;;;2.10;0.77;;;;;;;23.43;42.58;101955.09;5070977;28;20082;-59
2022/07/04 01:14:50;;;;;;;2.00;0.87;;;;;;;23.23;42.76;101919.34;5084142;28;20459;-59
2022/07/04 01:17:15;;;;;;;1.02;0.80;;;;;;;23.37;42.53;101939.50;5084859;28;20051;-59
2022/07/04 01:19:41;;;;;;;1.23;0.95;;;;;;;23.21;42.73;101915.97;5083822;28;20106;-59
2022/07/04 01:22:06;;;;;;;1.45;1.00;;;;;;;23.38;42.67;101941.19;5066803;28;20021;-59
2022/07/04 01:24:32;;;;;;;2.10;0.95;;;;;;;23.38;42.39;101950.19;5063339;28;20043;-59
2022/07/04 01:26:57;;;;;;;2.97;0.90;;;;;;;23.38;42.24;101946.63;5063843;28;20533;-59
2022/07/04 01:29:22;;;;;;;1.20;0.70;;;;;;;23.36;42.49;101945.94;5064917;28;20031;-59
2022/07/04 01:31:47;;;;;;;1.77;1.10;;;;;;;23.33;42.65;101936.28;5063666;28;20029;-59
2022/07/04 01:34:13;;;;;;;1.27;0.93;;;;;;;23.33;42.62;101943.59;5064885;28;20045;-59
2022/07/04 01:36:38;;;;;;;1.83;0.70;;;;;;;23.28;42.62;101935.97;5064554;28;20044;-59
2022/07/04 01:39:03;;;;;;;0.90;0.80;;;;;;;23.31;42.64;101941.03;5081831;28;20016;-59
2022/07/04 01:41:37;;;;;;;2.58;1.05;;;;;;;23.30;42.46;101939.34;5084746;28;20041;-59
2022/07/04 01:44:03;;;;;;;1.35;1.00;;;;;;;23.11;42.40;101905.31;5067148;28;20028;-59
2022/07/04 01:46:28;;;;;;;2.95;0.98;;;;;;;23.28;42.43;101940.50;5084584;28;20040;-59
2022/07/04 01:48:53;;;;;;;1.85;0.88;;;;;;;23.09;42.44;101914.63;5083523;28;20027;-59
2022/07/04 01:51:18;;;;;;;1.60;0.77;;;;;;;23.23;42.41;101934.75;5084659;28;20082;-59
2022/07/04 01:53:44;;;;;;;1.90;0.88;;;;;;;23.06;42.30;101906.81;5084247;28;20065;-59
2022/07/04 01:56:09;;;;;;;1.65;0.70;;;;;;;23.20;42.46;101927.84;5066320;28;20050;-59
2022/07/04 01:58:34;;;;;;;0.77;0.70;;;;;;;23.22;42.31;101936.63;5084622;28;20032;-59
2022/07/04 02:03:45;;;;;;;1.85;1.10;;;;;;;23.22;42.21;101927.66;5085022;28;20093;-59
2022/07/04 02:06:11;;;;;;;2.17;1.17;;;;;;;22.98;42.37;101894.13;5083059;28;20044;-59
2022/07/04 02:11:20;;;;;;;1.98;0.80;;;;;;;23.17;42.01;101920.88;5082895;28;20512;-59
2022/07/04 02:13:45;;;;;;;1.27;0.80;;;;;;;23.18;42.15;101921.72;5062940;28;20040;-59
2022/07/04 02:16:10;;;;;;;1.13;0.82;;;;;;;23.17;42.24;101911.91;5064401;28;20025;-59
2022/07/04 02:18:35;;;;;;;1.27;0.80;;;;;;;23.16;42.07;101918.34;5064521;28;20032;-59
2022/07/04 02:21:01;;;;;;;0.80;0.70;;;;;;;23.14;42.01;101917.66;5064576;28;20025;-59
2022/07/04 02:23:26;;;;;;;0.93;0.60;;;;;;;23.14;42.17;101921.22;5063285;28;20509;-60
2022/07/04 02:25:51;;;;;;;1.10;0.77;;;;;;;23.13;42.45;101924.09;5063739;28;20029;-59
2022/07/04 02:28:18;;;;;;;0.85;0.50;;;;;;;23.10;41.79;101916.31;5064324;28;20025;-59
2022/07/04 02:30:43;;;;;;;0.57;0.52;;;;;;;23.10;42.19;101917.16;5062965;28;20036;-59
2022/07/04 02:33:08;;;;;;;1.58;0.70;;;;;;;22.86;42.11;101876.50;5063116;28;20025;-59
2022/07/04 02:35:34;;;;;;;1.50;0.85;;;;;;;23.01;42.26;101899.19;5062780;28;20021;-60
2022/07/04 02:37:59;;;;;;;2.47;0.75;;;;;;;23.07;42.00;101917.50;5066372;28;20443;-59
2022/07/04 02:40:24;;;;;;;1.60;0.63;;;;;;;23.07;42.16;101912.09;5065976;28;20079;-59
2022/07/04 02:42:50;;;;;;;1.13;0.60;;;;;;;23.05;41.84;101910.56;5067725;28;20128;-59
2022/07/04 02:45:15;;;;;;;2.95;0.90;;;;;;;23.05;41.96;101911.41;5067868;28;20393;-59
2022/07/04 02:47:40;;;;;;;1.15;0.60;;;;;;;23.03;41.94;101904.47;5066091;28;20087;-59
2022/07/04 02:50:06;;;;;;;1.25;0.70;;;;;;;23.04;41.85;101904.28;5067793;28;20036;-59
2022/07/04 02:52:31;;;;;;;1.00;0.50;;;;;;;23.03;41.87;101902.59;5050050;28;20050;-59
2022/07/04 02:54:57;;;;;;;2.60;0.60;;;;;;;23.02;41.96;101905.47;5067291;28;20032;-60
2022/07/04 02:57:22;;;;;;;0.68;0.63;;;;;;;23.02;41.78;101906.31;5066295;28;20459;-60
2022/07/04 02:59:47;;;;;;;2.30;0.70;;;;;;;22.99;41.54;101909.38;5067862;28;20025;-60
2022/07/04 03:02:13;;;;;;;1.15;0.73;;;;;;;23.00;41.92;101915.66;5067798;28;20021;-60
2022/07/04 03:04:39;;;;;;;1.67;0.60;;;;;;;23.00;41.81;101912.94;5066177;28;20107;-60
2022/07/04 03:07:06;;;;;;;1.58;0.70;;;;;;;22.98;41.83;101914.97;5066171;28;20025;-60
2022/07/04 03:09:32;;;;;;;0.73;0.50;;;;;;;22.98;41.71;101917.69;5049261;28;20032;-60
2022/07/04 03:11:57;;;;;;;1.05;0.60;;;;;;;22.76;41.71;101892.91;5074458;28;20021;-60
2022/07/04 03:14:22;;;;;;;1.63;0.70;;;;;;;22.94;41.93;101923.47;5087439;28;20532;-60
2022/07/04 03:16:47;;;;;;;1.95;0.75;;;;;;;22.75;41.47;101896.66;5087152;28;20044;-60
2022/07/04 03:19:13;;;;;;;1.85;0.60;;;;;;;22.74;41.74;101900.38;5086438;28;20024;-60
2022/07/04 03:21:38;;;;;;;0.93;0.60;;;;;;;22.91;41.58;101928.38;5085907;28;20033;-60
2022/07/04 03:24:04;;;;;;;2.00;0.40;;;;;;;22.90;41.96;101921.28;5087123;28;20048;-59
2022/07/04 03:26:31;;;;;;;1.48;0.60;;;;;;;22.89;41.72;101928.50;5068833;28;20030;-60
2022/07/04 03:28:57;;;;;;;0.70;0.50;;;;;;;22.87;41.70;101921.56;5085846;28;20088;-60
2022/07/04 03:31:22;;;;;;;0.70;0.50;;;;;;;22.87;41.42;101921.56;5086848;28;20035;-60
2022/07/04 03:33:48;;;;;;;1.23;0.50;;;;;;;22.61;41.67;101881.09;5087280;28;20021;-60
2022/07/04 03:36:13;;;;;;;0.52;0.40;;;;;;;22.68;41.49;101898.34;5086577;28;20020;-60
2022/07/04 03:38:39;;;;;;;0.38;0.38;;;;;;;22.86;41.77;101922.59;5068665;28;20031;-60
2022/07/04 03:41:04;;;;;;;0.30;0.30;;;;;;;22.85;41.74;101926.28;5085715;28;20062;-60
2022/07/04 03:43:29;;;;;;;0.40;0.40;;;;;;;22.83;41.67;101921.06;5086356;28;20029;-60
2022/07/04 03:45:54;;;;;;;0.70;0.43;;;;;;;22.83;41.81;101928.34;5085474;28;20115;-60
2022/07/04 03:48:20;;;;;;;1.75;0.50;;;;;;;22.83;41.39;101922.91;5085877;28;20024;-60
2022/07/04 03:50:45;;;;;;;0.50;0.40;;;;;;;22.82;41.51;101932.09;5086581;28;20123;-60
2022/07/04 03:53:12;;;;;;;0.90;0.55;;;;;;;22.81;41.64;101928.53;5087019;28;20028;-61
2022/07/04 03:55:37;;;;;;;1.10;0.80;;;;;;;22.61;41.87;101905.47;5084931;28;20017;-61
2022/07/04 03:58:04;;;;;;;2.45;0.70;;;;;;;22.80;41.41;101945.78;5085112;28;20038;-61
2022/07/04 04:00:30;;;;;;;0.85;0.63;;;;;;;22.79;41.70;101945.97;5084989;28;20028;-61
2022/07/04 04:02:55;;;;;;;0.52;0.43;;;;;;;22.59;41.50;101915.63;5086635;28;20029;-61
2022/07/04 04:05:26;;;;;;;1.95;0.60;;;;;;;22.76;41.60;101944.44;5086282;28;20027;-61
2022/07/04 04:07:59;;;;;;;1.63;0.60;;;;;;;22.77;41.83;101946.16;5085094;28;20024;-61
2022/07/04 04:10:26;;;;;;;1.65;0.75;;;;;;;22.77;41.70;101943.44;5085638;28;20028;-61
2022/07/04 04:12:52;;;;;;;2.33;0.60;;;;;;;22.76;41.85;101952.56;5069902;28;20487;-61
2022/07/04 04:15:17;;;;;;;0.90;0.60;;;;;;;22.76;41.61;101954.44;5066261;28;20040;-61
2022/07/04 04:17:42;;;;;;;1.25;0.55;;;;;;;22.75;41.65;101948.16;5065816;28;20116;-61
2022/07/04 04:20:11;;;;;;;1.80;0.50;;;;;;;22.75;41.98;101958.16;5066210;28;20028;-61
2022/07/04 04:22:36;;;;;;;1.33;0.70;;;;;;;22.73;41.81;101957.50;5064985;28;20328;-61
2022/07/04 04:25:02;;;;;;;1.65;0.70;;;;;;;22.73;42.02;101973.78;5047670;28;20036;-61
2022/07/04 04:27:27;;;;;;;1.02;0.60;;;;;;;22.73;41.75;101973.78;5065533;28;20028;-61
2022/07/04 04:29:53;;;;;;;1.23;0.63;;;;;;;22.72;41.79;101972.91;5066095;28;20040;-61
2022/07/04 04:32:18;;;;;;;1.00;0.50;;;;;;;22.72;41.87;101978.31;5065899;28;20040;-61
2022/07/04 04:34:43;;;;;;;1.10;0.75;;;;;;;22.71;42.01;101973.91;5066076;28;20077;-61
2022/07/04 04:37:09;;;;;;;1.23;0.60;;;;;;;22.61;42.23;101954.28;5064213;28;20535;-61
2022/07/04 04:39:34;;;;;;;1.73;0.70;;;;;;;22.73;42.20;101971.91;5065401;28;20028;-61
2022/07/04 04:41:59;;;;;;;1.20;0.68;;;;;;;22.49;42.40;101942.91;5065536;28;20096;-61
2022/07/04 04:44:24;;;;;;;2.78;1.38;;;;;;;22.74;42.63;101972.75;5047453;28;20032;-61
2022/07/04 04:46:50;;;;;;;0.98;0.57;;;;;;;22.72;42.56;101972.91;5064302;28;20056;-61
2022/07/04 04:49:16;;;;;;;2.28;0.80;;;;;;;22.72;42.28;101975.59;5064456;28;20024;-61
2022/07/04 04:51:42;;;;;;;2.60;0.98;;;;;;;22.73;42.41;101965.63;5065533;28;20461;-61
2022/07/04 04:54:07;;;;;;;1.08;0.60;;;;;;;22.72;42.54;101962.06;5047288;28;20044;-61
2022/07/04 04:56:33;;;;;;;1.35;0.70;;;;;;;22.53;42.51;101938.84;5065199;28;20031;-61
2022/07/04 04:58:58;;;;;;;2.13;0.80;;;;;;;22.73;42.72;101965.63;5065389;28;20025;-61
2022/07/04 05:01:23;;;;;;;2.90;0.82;;;;;;;22.51;42.72;101923.75;5065246;28;20021;-61
2022/07/04 05:03:48;;;;;;;2.25;1.13;;;;;;;22.72;42.87;101959.34;5064677;28;20021;-61
2022/07/04 05:06:14;;;;;;;1.17;0.60;;;;;;;22.72;42.62;101962.06;5058817;28;20032;-61
2022/07/04 05:08:39;;;;;;;1.55;0.65;;;;;;;22.70;42.87;101964.09;5043526;28;20040;-61
2022/07/04 05:11:04;;;;;;;2.80;0.90;;;;;;;22.72;43.08;101970.19;5045060;28;20029;-61
2022/07/04 05:13:30;;;;;;;1.42;0.80;;;;;;;22.48;42.91;101933.09;5084827;28;20086;-61
2022/07/04 05:15:55;;;;;;;2.17;0.80;;;;;;;22.70;42.78;101959.53;5067037;28;20028;-61
2022/07/04 05:18:21;;;;;;;2.05;0.90;;;;;;;22.71;42.87;101965.78;5066731;28;20043;-61
2022/07/04 05:20:46;;;;;;;1.95;0.90;;;;;;;22.67;42.82;101965.28;5085268;28;20031;-61
2022/07/04 05:23:11;;;;;;;1.50;0.70;;;;;;;22.71;43.01;101961.22;5085134;28;20020;-61
2022/07/04 05:25:37;;;;;;;2.22;0.98;;;;;;;22.71;42.81;101957.66;5083446;28;20074;-61
2022/07/04 05:28:02;;;;;;;2.75;0.98;;;;;;;22.71;42.90;101969.34;5084756;28;20039;-61
2022/07/04 05:30:27;;;;;;;2.33;0.93;;;;;;;22.71;43.06;101963.06;5083899;28;20256;-61
2022/07/04 05:32:53;;;;;;;2.92;1.10;;;;;;;22.52;43.02;101923.59;5085118;28;20032;-61
2022/07/04 05:35:18;;;;;;;2.20;0.90;;;;;;;22.50;43.49;101928.31;5084832;28;20021;-61
2022/07/04 05:37:43;;;;;;;1.88;0.73;;;;;;;22.71;43.51;101954.94;5083477;28;20377;-61
2022/07/04 05:40:10;;;;;;;2.80;0.90;;;;;;;22.73;43.21;101962.94;5084536;28;20033;-61
2022/07/04 05:42:35;;;;;;;3.05;0.70;;;;;;;22.73;43.38;101965.63;5084471;28;20060;-60
2022/07/04 05:45:00;;;;;;;2.63;0.93;;;;;;;22.72;43.28;101962.06;5084840;28;20036;-61
2022/07/04 05:47:26;;;;;;;2.50;0.90;;;;;;;22.72;43.29;101970.19;5083363;28;20416;-61
2022/07/04 05:49:52;;;;;;;2.30;0.98;;;;;;;22.72;43.34;101975.59;5083798;28;20115;-61
2022/07/04 05:52:17;;;;;;;4.40;1.40;;;;;;;22.71;43.58;101974.75;5083733;28;20043;-61
2022/07/04 05:54:42;;;;;;;2.90;1.05;;;;;;;22.54;43.72;101948.66;5083123;28;20514;-61
2022/07/04 05:57:08;;;;;;;5.40;1.77;;;;;;;22.70;43.70;101981.22;5083444;28;20028;-61
2022/07/04 05:59:33;;;;;;;2.20;0.88;;;;;;;22.73;43.71;101985.47;5084535;28;20119;-61
2022/07/04 06:01:58;;;;;;;1.98;1.00;;;;;;;22.54;43.64;101954.06;5083359;28;20036;-61
2022/07/04 06:04:24;;;;;;;1.77;0.80;;;;;;;22.74;43.66;101984.44;5083382;28;20380;-61
2022/07/04 06:06:49;;;;;;;1.73;0.90;;;;;;;22.74;43.77;101984.44;5084256;28;20036;-61
2022/07/04 06:09:14;;;;;;;3.65;1.33;;;;;;;22.73;44.18;101979.19;5084325;28;20096;-61
2022/07/04 06:11:40;;;;;;;1.40;1.10;;;;;;;22.53;44.00;101957.81;5078769;28;20360;-61
2022/07/04 06:14:05;;;;;;;2.75;0.98;;;;;;;22.75;44.08;101982.56;5050304;28;20021;-61
2022/07/04 06:16:30;;;;;;;3.15;0.90;;;;;;;22.74;44.25;101981.72;5068410;28;20024;-61
2022/07/04 06:18:55;;;;;;;3.47;0.90;;;;;;;22.76;44.02;101986.97;5068352;28;20017;-61
2022/07/04 06:21:21;;;;;;;3.35;1.33;;;;;;;22.75;44.08;101986.13;5068030;28;20021;-61
2022/07/04 06:23:46;;;;;;;1.83;0.90;;;;;;;22.55;44.06;101953.06;5068119;28;20103;-61
2022/07/04 06:26:11;;;;;;;1.98;0.90;;;;;;;22.76;44.17;101985.09;5067937;28;20033;-61
2022/07/04 06:28:37;;;;;;;1.55;0.93;;;;;;;22.77;44.56;101981.41;5067886;28;20024;-61
2022/07/04 06:31:02;;;;;;;2.33;1.00;;;;;;;22.76;44.46;101984.25;5068139;28;20049;-61
2022/07/04 06:33:27;;;;;;;1.70;0.90;;;;;;;22.76;44.27;101984.25;5066679;28;20029;-61
2022/07/04 06:35:56;;;;;;;2.67;1.20;;;;;;;22.77;44.23;101992.25;5066479;28;20039;-61
2022/07/04 06:38:23;;;;;;;1.33;0.75;;;;;;;22.71;44.34;101980.19;5067667;28;20044;-61
2022/07/04 06:40:50;;;;;;;2.58;0.93;;;;;;;22.80;44.23;101985.63;5067430;28;20059;-61
2022/07/04 06:43:15;;;;;;;2.47;1.13;;;;;;;22.80;44.56;101986.47;5067351;28;20124;-61
2022/07/04 06:45:41;;;;;;;2.60;0.90;;;;;;;22.81;44.64;101985.47;5066609;28;20522;-61
2022/07/04 06:48:06;;;;;;;2.72;1.00;;;;;;;22.84;44.68;101984.25;5066273;28;20021;-61
2022/07/04 06:50:32;;;;;;;5.63;1.73;;;;;;;22.66;44.52;101950.03;5067635;28;20046;-62
2022/07/04 06:53:02;;;;;;;2.20;1.27;;;;;;;22.85;44.81;101973.28;5067662;28;20032;-61
2022/07/04 06:55:27;;;;;;;1.70;0.77;;;;;;;22.86;44.67;101971.41;5049363;28;20021;-61
2022/07/04 06:57:53;;;;;;;2.08;0.90;;;;;;;22.84;44.85;101958.00;5067445;28;20069;-61
2022/07/04 07:00:18;;;;;;;2.03;0.93;;;;;;;22.89;44.72;101969.16;5067531;28;20032;-61
2022/07/04 07:02:43;;;;;;;3.63;1.20;;;;;;;22.89;44.61;101962.91;5067581;28;20522;-61
2022/07/04 07:05:08;;;;;;;2.65;0.77;;;;;;;22.69;44.80;101930.72;5066198;28;20060;-61
2022/07/04 07:07:34;;;;;;;4.63;1.13;;;;;;;22.91;44.92;101975.31;5067206;28;20028;-61
2022/07/04 07:10:01;;;;;;;3.05;0.85;;;;;;;22.37;45.09;101881.91;5065814;28;20028;-61
2022/07/04 07:12:26;;;;;;;2.45;0.88;;;;;;;22.93;45.39;101976.00;5077073;28;20024;-61
2022/07/04 07:14:51;;;;;;;3.53;1.10;;;;;;;22.76;45.29;101949.00;5087137;28;20023;-61
2022/07/04 07:17:17;;;;;;;1.60;0.82;;;;;;;22.95;45.69;101975.84;5087042;28;20228;-61
2022/07/04 07:19:43;;;;;;;2.90;1.25;;;;;;;22.95;45.74;101978.56;5085807;28;20021;-61
2022/07/04 07:22:12;;;;;;;2.50;0.90;;;;;;;22.97;45.71;101975.66;5085972;28;20025;-61
2022/07/04 07:24:38;;;;;;;1.92;0.90;;;;;;;22.77;45.60;101940.72;5086666;28;20465;-61
2022/07/04 07:27:04;;;;;;;3.33;1.27;;;;;;;22.97;45.71;101972.94;5086947;28;20025;-61
2022/07/04 07:29:29;;;;;;;1.30;0.98;;;;;;;22.95;45.74;101968.53;5085598;28;20541;-61
2022/07/04 07:31:54;;;;;;;3.38;1.27;;;;;;;22.95;45.59;101959.56;5086802;28;20115;-61
2022/07/04 07:34:20;;;;;;;2.75;1.05;;;;;;;22.97;46.08;101967.53;5085596;28;20029;-61
2022/07/04 07:36:45;;;;;;;2.60;1.00;;;;;;;22.95;46.13;101959.56;5086699;28;20027;-61
2022/07/04 07:39:10;;;;;;;3.15;1.10;;;;;;;22.88;46.21;101945.78;5086377;28;20570;-61
2022/07/04 07:41:36;;;;;;;3.58;1.98;;;;;;;22.77;46.02;101931.72;5086497;28;20070;-61
2022/07/04 07:44:01;;;;;;;2.28;0.90;;;;;;;22.99;46.16;101963.63;5086523;28;20036;-61
2022/07/04 07:46:26;;;;;;;3.00;1.13;;;;;;;22.98;46.48;101950.22;5086482;28;20029;-61
2022/07/04 07:48:52;;;;;;;2.15;0.98;;;;;;;22.99;46.24;101957.38;5086636;28;20028;-61
2022/07/04 07:51:17;;;;;;;3.63;1.10;;;;;;;22.79;46.13;101918.84;5085392;28;20473;-61
2022/07/04 07:53:43;;;;;;;4.72;1.80;;;;;;;23.03;46.27;101958.72;5068797;28;20031;-61
2022/07/04 07:56:08;;;;;;;3.08;1.00;;;;;;;23.04;46.28;101957.69;5085086;28;20039;-61
2022/07/04 07:58:34;;;;;;;5.13;1.20;;;;;;;23.04;46.15;101969.38;5085142;28;20082;-61
2022/07/04 08:01:01;;;;;;;4.57;1.48;;;;;;;22.80;46.27;101923.25;5084788;28;20107;-61
2022/07/04 08:06:12;;;;;;;5.47;1.50;;;;;;;23.06;46.54;101967.34;5085313;28;20028;-61
2022/07/04 08:08:37;;;;;;;3.42;1.80;;;;;;;23.03;46.44;101965.00;5086075;28;20473;-61
2022/07/04 08:11:03;;;;;;;3.25;1.23;;;;;;;23.04;46.34;101974.81;5085533;28;20055;-61
2022/07/04 08:13:29;;;;;;;4.15;1.08;;;;;;;23.07;46.49;101968.22;5064815;28;20142;-61
2022/07/04 08:15:54;;;;;;;3.08;1.17;;;;;;;23.08;46.41;101978.88;5065820;28;20068;-61
2022/07/04 08:18:20;;;;;;;2.95;1.02;;;;;;;23.08;46.55;101981.59;5064712;28;20470;-61
2022/07/04 08:20:45;;;;;;;2.22;1.00;;;;;;;23.07;46.58;101990.75;5048304;28;20021;-61
2022/07/04 08:23:10;;;;;;;1.98;1.10;;;;;;;23.10;46.60;101986.84;5064694;28;20031;-61
2022/07/04 08:25:36;;;;;;;3.97;1.30;;;;;;;22.91;46.63;101960.91;5065158;28;20495;-61
2022/07/04 08:28:01;;;;;;;2.85;1.20;;;;;;;23.04;46.51;101976.69;5064505;28;20021;-61
2022/07/04 08:30:26;;;;;;;2.92;0.88;;;;;;;22.86;46.56;101949.72;5065771;28;20048;-61
2022/07/04 08:32:52;;;;;;;2.85;1.23;;;;;;;23.08;45.82;101988.88;5064509;28;20037;-61
2022/07/04 08:35:17;;;;;;;3.45;1.20;;;;;;;23.09;46.73;101990.56;5065459;28;20120;-61
2022/07/04 08:37:42;;;;;;;3.40;1.88;;;;;;;23.09;46.51;101982.44;5065274;28;20382;-61
2022/07/04 08:40:08;;;;;;;2.38;1.00;;;;;;;22.87;46.68;101941.41;5065321;28;20027;-61
2022/07/04 08:42:38;;;;;;;2.70;1.10;;;;;;;23.12;46.66;101982.94;5064203;28;20123;-61
2022/07/04 08:45:04;;;;;;;4.15;1.30;;;;;;;22.93;46.72;101942.59;5064250;28;20047;-61
2022/07/04 08:47:33;;;;;;;2.60;0.90;;;;;;;22.96;46.79;101955.81;5065263;28;20021;-61
2022/07/04 08:50:10;;;;;;;2.55;1.00;;;;;;;23.18;46.86;101979.53;5065536;28;20053;-60
2022/07/04 08:52:37;;;;;;;4.28;1.27;;;;;;;23.18;46.52;101984.13;5064151;28;20030;-61
2022/07/04 09:00:34;;;;;;;1.77;1.08;;;;;;;23.03;46.77;101945.16;5065073;28;20090;-61
2022/07/04 09:03:01;;;;;;;3.60;1.27;;;;;;;23.04;46.83;101944.97;5047290;28;20049;-61
2022/07/04 09:05:26;;;;;;;2.83;1.23;;;;;;;23.14;46.50;101964.63;5064909;28;20024;-61
2022/07/04 09:07:52;;;;;;;3.08;1.25;;;;;;;23.28;46.31;101984.81;5063696;28;20564;-61
2022/07/04 09:10:18;;;;;;;3.85;1.25;;;;;;;23.15;46.22;101968.19;5063687;28;20052;-61
2022/07/04 09:12:43;;;;;;;3.80;1.13;;;;;;;23.17;46.06;101966.16;5078623;28;20028;-61
2022/07/04 09:15:08;;;;;;;2.03;0.90;;;;;;;23.39;45.97;102000.72;5083785;28;20025;-61
2022/07/04 09:17:34;;;;;;;2.20;1.20;;;;;;;23.22;45.99;101971.91;5084679;28;20021;-61
2022/07/04 09:20:19;;;;;;;2.30;1.15;;;;;;;23.40;46.08;101993.41;5067170;28;20016;-61
2022/07/04 09:22:47;;;;;;;3.97;1.17;;;;;;;23.42;46.02;102002.25;5067214;28;20381;-61
2022/07/04 09:25:14;;;;;;;1.73;0.90;;;;;;;23.42;46.01;101986.81;5084319;28;20084;-60
2022/07/04 09:27:41;;;;;;;3.72;1.30;;;;;;;23.43;46.08;101993.06;5083433;28;20025;-61
2022/07/04 09:30:07;;;;;;;2.47;1.00;;;;;;;23.40;45.83;101979.84;5083774;28;20031;-61
2022/07/04 09:32:51;;;;;;;1.83;0.90;;;;;;;23.44;45.94;101990.19;5085096;28;20033;-61
2022/07/04 09:35:17;;;;;;;3.35;1.25;;;;;;;23.44;45.77;101975.75;5083568;28;20389;-61
2022/07/04 09:37:47;;;;;;;1.50;1.20;;;;;;;23.46;45.47;101973.75;5084680;28;20089;-61
2022/07/04 09:43:20;;;;;;;2.72;1.30;;;;;;;23.51;45.50;101973.22;5084786;28;20079;-61
2022/07/04 09:45:59;;;;;;;1.20;0.77;;;;;;;23.34;45.50;101951.53;5083543;28;20016;-61
2022/07/04 09:48:25;;;;;;;2.25;1.10;;;;;;;23.45;45.84;101966.63;5086390;28;20094;-61
2022/07/04 09:50:51;;;;;;;3.70;1.00;;;;;;;23.56;45.60;101987.13;5087723;28;20466;-61
2022/07/04 09:53:16;;;;;;;2.38;0.77;;;;;;;23.54;45.61;101989.16;5070915;28;20378;-61
2022/07/04 09:55:41;;;;;;;2.65;0.77;;;;;;;23.56;45.48;101990.66;5088036;28;20040;-60
2022/07/04 09:58:09;;;;;;;3.72;0.90;;;;;;;23.55;45.44;101997.13;5088384;28;20021;-61
2022/07/04 10:00:35;;;;;;;2.85;1.00;;;;;;;23.55;45.39;102004.44;5087436;28;20107;-61
2022/07/04 10:03:25;;;;;;;2.38;1.00;;;;;;;23.53;45.28;102004.59;5087316;28;20025;-61
2022/07/04 10:06:11;;;;;;;3.08;1.00;;;;;;;23.55;45.18;101996.28;5088487;28;20051;-61
2022/07/04 10:08:37;;;;;;;2.45;0.85;;;;;;;23.32;45.38;101960.84;5087097;28;20023;-61
2022/07/04 10:11:04;;;;;;;3.13;0.98;;;;;;;23.54;45.24;101997.31;5086886;28;20044;-61
2022/07/04 10:13:30;;;;;;;2.03;1.00;;;;;;;23.55;45.11;101996.28;5068133;28;20076;-61
2022/07/04 10:15:55;;;;;;;2.53;0.65;;;;;;;23.55;45.20;101989.00;5068218;28;20489;-60
2022/07/04 10:18:22;;;;;;;2.03;0.88;;;;;;;23.55;45.24;101978.13;5066907;28;20025;-61
2022/07/04 10:20:49;;;;;;;2.92;0.95;;;;;;;23.34;45.18;101959.69;5068332;28;20060;-61
2022/07/04 10:23:15;;;;;;;1.63;0.80;;;;;;;23.39;45.28;101951.84;5068403;28;20021;-60
2022/07/04 10:25:41;;;;;;;4.55;1.20;;;;;;;23.58;45.29;101983.22;5067655;28;20017;-61
2022/07/04 10:28:07;;;;;;;2.63;1.13;;;;;;;23.60;45.11;101978.44;5066511;28;20021;-61
2022/07/04 10:30:35;;;;;;;3.17;0.80;;;;;;;23.63;45.22;101974.56;5067074;28;20027;-61
2022/07/04 10:33:03;;;;;;;2.37;0.83;;;;;;;23.63;45.05;101974.56;5066578;28;20056;-61
2022/07/04 10:35:50;;;;;;;2.58;1.10;;;;;;;23.65;45.21;101970.66;5067903;28;20029;-61
2022/07/04 10:38:17;;;;;;;1.50;0.70;;;;;;;23.66;45.00;101972.38;5067688;28;20032;-61
2022/07/04 10:40:51;;;;;;;2.78;0.95;;;;;;;23.66;44.80;101966.06;5067371;28;20045;-58
2022/07/04 10:46:27;;;;;;;3.45;0.80;;;;;;;23.71;44.92;101971.84;5066603;28;20033;-61
2022/07/04 10:48:55;;;;;;;1.98;0.70;;;;;;;23.72;44.75;101961.81;5064972;28;20071;-61
2022/07/04 10:52:00;;;;;;;1.67;0.63;;;;;;;23.75;45.08;101964.19;5066520;28;20070;-61
2022/07/04 10:54:31;;;;;;;0.98;0.63;;;;;;;23.75;44.87;101958.75;5062130;28;20139;-60
2022/07/04 10:57:09;;;;;;;1.08;0.50;;;;;;;23.68;44.88;101947.75;5066089;28;20027;-61
2022/07/04 10:59:34;;;;;;;1.70;0.82;;;;;;;23.78;44.81;101958.38;5065990;28;20076;-61
2022/07/04 11:02:11;;;;;;;2.22;0.70;;;;;;;23.78;44.91;101961.94;5066214;28;20214;-60
2022/07/04 11:05:07;;;;;;;1.38;0.63;;;;;;;23.80;44.80;101957.22;5065349;28;20031;-60
2022/07/04 11:07:35;;;;;;;1.58;0.82;;;;;;;23.80;44.95;101968.06;5064613;28;20060;-60
2022/07/04 11:10:21;;;;;;;1.65;0.85;;;;;;;23.79;44.69;101971.81;5066404;28;20287;-61
2022/07/04 11:12:59;;;;;;;1.95;0.80;;;;;;;23.79;44.91;101962.78;5079048;28;20078;-60
2022/07/04 11:15:24;;;;;;;1.45;0.85;;;;;;;23.77;44.91;101964.84;5086166;28;20122;-58
2022/07/04 11:17:51;;;;;;;2.15;0.80;;;;;;;23.75;44.73;101973.19;5085964;28;20043;-61
2022/07/04 11:20:17;;;;;;;2.97;0.63;;;;;;;23.74;44.61;101970.63;5086364;28;20024;-61
2022/07/04 11:22:42;;;;;;;2.15;1.13;;;;;;;23.75;44.92;101959.59;5067937;28;20100;-60
2022/07/04 11:25:08;;;;;;;1.38;0.77;;;;;;;23.56;44.88;101930.09;5085950;28;20445;-61
2022/07/04 11:27:33;;;;;;;1.60;0.68;;;;;;;23.76;44.91;101974.03;5084390;28;20035;-61
2022/07/04 11:29:58;;;;;;;2.55;0.70;;;;;;;23.74;45.22;101957.06;5085060;28;20031;-61
2022/07/04 11:32:32;;;;;;;0.98;0.52;;;;;;;23.74;44.72;101963.31;5085683;28;20496;-60
2022/07/04 11:34:57;;;;;;;1.60;0.60;;;;;;;23.76;44.85;101958.59;5084888;28;20021;-60
2022/07/04 11:37:23;;;;;;;1.90;0.68;;;;;;;23.55;44.65;101920.28;5085306;28;20098;-59
2022/07/04 11:39:53;;;;;;;1.33;0.63;;;;;;;23.79;44.75;101957.38;5067534;28;20060;-59
2022/07/04 11:45:04;;;;;;;1.70;0.70;;;;;;;23.81;44.96;101963.47;5085729;28;20052;-61